Time;durP1;ratioP1;P1;durP2;ratioP2;P2;SDS_P1;SDS_P2;PMS_P1;PMS_P2;Temp;Humidity;BMP_temperature;BMP_pressure;BME280_temperature;BME280_humidity;BME280_pressure;Samples;Min_cycle;Max_cycle;Signal;HPM_P1;HPM_P2
2022/06/24 00:00:29;;;;;;;7.33;3.33;;;;;;;;;;20923769;28;20285;-72
2022/06/24 00:10:33;;;;;;;6.93;3.10;;;;;;;;;;20920920;28;20203;-73
2022/06/24 00:20:41;;;;;;;15.67;3.23;;;;;;;;;;20948634;28;20231;-72
2022/06/24 00:30:55;;;;;;;8.77;2.97;;;;;;;;;;21000516;28;20207;-72
2022/06/24 00:40:57;;;;;;;11.27;2.87;;;;;;;;;;21001082;28;20318;-71
2022/06/24 00:50:59;;;;;;;7.83;2.23;;;;;;;;;;20999867;28;20293;-72
2022/06/24 01:01:02;;;;;;;16.77;1.90;;;;;;;;;;20998891;28;20261;-70
2022/06/24 01:11:04;;;;;;;12.00;1.80;;;;;;;;;;20998044;28;20203;-72
2022/06/24 01:21:06;;;;;;;6.73;1.80;;;;;;;;;;20997253;28;20231;-72
2022/06/24 01:31:08;;;;;;;7.60;1.77;;;;;;;;;;20997030;28;20638;-72
2022/06/24 01:41:10;;;;;;;6.73;1.40;;;;;;;;;;20995664;28;20694;-72
2022/06/24 01:51:14;;;;;;;6.37;1.60;;;;;;;;;;20995654;28;20211;-73
2022/06/24 02:01:16;;;;;;;8.27;1.80;;;;;;;;;;20995448;28;20266;-73
2022/06/24 02:21:40;;;;;;;6.63;1.77;;;;;;;;;;20990796;28;20235;-73
2022/06/24 02:31:42;;;;;;;7.50;1.70;;;;;;;;;;20991862;28;20659;-73
2022/06/24 02:41:44;;;;;;;8.77;2.47;;;;;;;;;;20992855;28;20717;-73
2022/06/24 02:51:47;;;;;;;7.97;2.30;;;;;;;;;;20993636;28;20229;-73
2022/06/24 03:01:49;;;;;;;9.47;2.23;;;;;;;;;;20993806;28;20724;-73
2022/06/24 03:11:51;;;;;;;10.90;2.87;;;;;;;;;;20992490;28;20204;-72
2022/06/24 03:21:53;;;;;;;6.90;2.13;;;;;;;;;;20994394;28;20337;-73
2022/06/24 03:31:55;;;;;;;6.33;2.23;;;;;;;;;;21005410;28;20204;-73
2022/06/24 03:41:57;;;;;;;7.57;2.00;;;;;;;;;;21005567;28;20260;-73
2022/06/24 03:51:59;;;;;;;6.23;1.93;;;;;;;;;;21005282;28;20313;-73
2022/06/24 04:02:02;;;;;;;5.47;1.90;;;;;;;;;;21004483;28;20244;-73
2022/06/24 04:12:04;;;;;;;5.47;1.90;;;;;;;;;;21003677;28;20209;-72
2022/06/24 04:22:06;;;;;;;10.97;4.00;;;;;;;;;;20969734;28;20245;-72
2022/06/24 04:32:09;;;;;;;3.07;1.97;;;;;;;;;;20914880;28;20211;-73
2022/06/24 04:42:11;;;;;;;2.97;1.50;;;;;;;;;;20917989;28;20245;-74
2022/06/24 04:52:15;;;;;;;4.63;1.90;;;;;;;;;;20910093;28;20214;-72
2022/06/24 05:02:17;;;;;;;4.27;2.13;;;29.90;53.60;;;;;;20922654;28;20249;-71
2022/06/24 05:12:19;;;;;;;4.57;1.60;;;21.50;99.70;;;;;;20916604;28;20238;-64
2022/06/24 05:22:22;;;;;;;5.63;2.03;;;21.60;99.60;;;;;;20914900;28;20242;-73
2022/06/24 05:32:23;;;;;;;3.40;1.87;;;21.60;99.80;;;;;;20914280;28;20693;-70
2022/06/24 05:42:25;;;;;;;5.63;2.13;;;21.70;99.90;;;;;;20913637;28;20794;-67
2022/06/24 06:02:49;;;;;;;5.33;2.10;;;21.70;99.90;;;;;;20881696;28;20238;-76
2022/06/24 06:12:51;;;;;;;5.53;2.67;;;21.60;99.90;;;;;;20911953;28;20206;-67
2022/06/24 06:22:53;;;;;;;5.03;2.20;;;21.60;99.90;;;;;;20907459;28;20238;-74
2022/06/24 06:32:55;;;;;;;3.73;2.10;;;21.70;99.90;;;;;;20908543;28;20289;-63
2022/06/24 06:42:57;;;;;;;6.07;2.00;;;21.70;99.90;;;;;;20910087;28;20242;-69
2022/06/24 06:52:58;;;;;;;5.47;2.40;;;21.90;99.90;;;;;;20909238;28;20216;-72
2022/06/24 07:03:00;;;;;;;6.37;2.10;;;22.00;99.90;;;;;;20917609;28;20699;-63
2022/06/24 07:13:02;;;;;;;4.33;1.90;;;22.30;99.90;;;;;;20925459;28;20204;-68
2022/06/24 07:23:03;;;;;;;7.10;3.33;;;22.70;99.60;;;;;;20923421;28;20267;-64
2022/06/24 07:33:05;;;;;;;4.53;2.30;;;22.70;98.80;;;;;;20925248;28;20296;-79
2022/06/24 07:43:07;;;;;;;4.83;1.93;;;22.90;98.20;;;;;;20929526;28;20232;-63
2022/06/24 07:53:09;;;;;;;6.47;2.03;;;23.00;97.90;;;;;;20936907;28;20687;-76
2022/06/24 08:03:11;;;;;;;8.00;2.30;;;23.30;97.30;;;;;;20925499;28;20232;-63
2022/06/24 08:13:13;;;;;;;5.00;2.37;;;23.70;96.50;;;;;;20988417;28;20566;-63
2022/06/24 08:23:15;;;;;;;4.73;2.50;;;23.80;95.80;;;;;;20932104;28;20235;-67
2022/06/24 08:33:17;;;;;;;11.67;5.40;;;24.10;95.00;;;;;;20999435;28;20574;-68
2022/06/24 08:43:21;;;;;;;8.97;4.17;;;24.40;94.00;;;;;;21002914;28;20238;-67
2022/06/24 08:53:25;;;;;;;5.27;2.40;;;24.60;93.30;;;;;;20999993;28;20686;-66
2022/06/24 09:03:27;;;;;;;5.47;3.30;;;24.90;92.50;;;;;;20999281;28;20227;-68
2022/06/24 09:13:29;;;;;;;8.13;2.33;;;24.80;91.70;;;;;;20997671;28;20277;-64
2022/06/24 09:23:31;;;;;;;15.47;2.90;;;24.60;91.30;;;;;;20996668;28;20720;-67
2022/06/24 09:33:41;;;;;;;9.70;2.43;;;24.90;90.60;;;;;;20994974;28;20207;-64
2022/06/24 09:43:43;;;;;;;4.13;1.60;;;24.80;88.80;;;;;;20995069;28;20277;-70
2022/06/24 09:53:45;;;;;;;1.70;1.40;;;24.90;86.50;;;;;;20993982;28;20210;-69
2022/06/24 10:03:52;;;;;;;2.33;1.50;;;25.20;83.60;;;;;;20997339;28;20670;-67
2022/06/24 10:13:55;;;;;;;4.23;2.20;;;25.40;80.70;;;;;;21024905;28;20203;-65
2022/06/24 10:23:57;;;;;;;2.93;2.43;;;25.50;77.70;;;;;;20995189;28;20245;-70
2022/06/24 10:33:59;;;;;;;4.03;1.73;;;25.20;76.60;;;;;;20995342;28;20571;-66
2022/06/24 10:44:24;;;;;;;5.00;2.17;;;25.00;76.70;;;;;;21018318;28;20254;-71
2022/06/24 10:54:26;;;;;;;11.33;3.53;;;25.20;76.00;;;;;;21010738;28;20701;-66
2022/06/24 11:04:33;;;;;;;5.83;3.20;;;25.30;76.10;;;;;;20991394;28;20762;-67
2022/06/24 11:14:34;;;;;;;5.50;2.60;;;25.40;76.10;;;;;;20954469;28;20603;-65
2022/06/24 11:24:39;;;;;;;7.03;2.30;;;25.50;74.70;;;;;;20958856;28;20262;-66
2022/06/24 11:34:48;;;;;;;3.03;1.90;;;25.70;73.70;;;;;;21005308;28;20615;-65
2022/06/24 11:44:51;;;;;;;4.07;2.07;;;25.70;72.00;;;;;;21004624;28;20246;-68
2022/06/24 11:54:53;;;;;;;3.00;1.70;;;25.80;70.90;;;;;;21003702;28;20199;-64
2022/06/24 12:04:55;;;;;;;2.27;2.00;;;25.70;70.10;;;;;;21002810;28;20227;-68
2022/06/24 12:14:57;;;;;;;4.83;2.37;;;25.70;69.50;;;;;;21002639;28;20203;-64
2022/06/24 12:25:05;;;;;;;7.50;2.60;;;26.10;68.50;;;;;;21001140;28;20231;-72
2022/06/24 12:35:07;;;;;;;20.40;2.63;;;26.00;67.60;;;;;;21002077;28;20298;-70
2022/06/24 12:45:09;;;;;;;18.60;2.20;;;25.80;68.20;;;;;;20999537;28;20250;-69
2022/06/24 12:55:17;;;;;;;20.03;3.83;;;25.80;69.80;;;;;;20999105;28;20204;-66
2022/06/24 13:05:19;;;;;;;3.27;1.77;;;26.00;67.50;;;;;;20910580;28;20242;-71
2022/06/24 13:15:21;;;;;;;2.00;1.80;;;26.40;67.00;;;;;;20915199;28;20695;-73
2022/06/24 13:25:24;;;;;;;3.07;1.50;;;26.60;64.40;;;;;;20914967;28;20320;-73
2022/06/24 13:35:26;;;;;;;2.40;1.90;;;26.90;61.40;;;;;;20913978;28;20663;-72
2022/06/24 13:45:28;;;;;;;1.70;1.60;;;26.80;59.20;;;;;;20912927;28;20279;-73
2022/06/24 13:55:30;;;;;;;4.87;2.33;;;26.90;59.00;;;;;;20984171;28;20251;-73
2022/06/24 14:05:32;;;;;;;2.37;1.93;;;26.80;58.40;;;;;;20996121;28;20235;-69
2022/06/24 14:15:34;;;;;;;3.60;1.40;;;26.80;58.50;;;;;;20980465;28;20199;-71
2022/06/24 14:25:36;;;;;;;5.37;1.87;;;27.00;58.50;;;;;;20994973;28;20239;-65
2022/06/24 14:35:38;;;;;;;1.60;1.43;;;26.90;58.20;;;;;;20994563;28;20290;-65
2022/06/24 14:45:40;;;;;;;2.63;1.50;;;27.10;58.20;;;;;;20994050;28;20239;-67
2022/06/24 14:55:42;;;;;;;2.20;1.50;;;27.40;58.40;;;;;;20993867;28;20211;-72
2022/06/24 15:05:44;;;;;;;2.43;2.03;;;27.60;57.70;;;;;;20919066;28;20247;-68
2022/06/24 15:15:46;;;;;;;3.57;3.23;;;27.40;57.40;;;;;;20911413;28;20204;-75
2022/06/24 15:25:48;;;;;;;1.97;1.60;;;27.20;57.30;;;;;;20908206;28;20628;-75
2022/06/24 15:35:49;;;;;;;1.77;1.57;;;26.90;57.20;;;;;;20924770;28;20638;-73
2022/06/24 15:45:52;;;;;;;2.10;1.67;;;26.70;57.80;;;;;;20923273;28;20280;-66
2022/06/24 15:55:55;;;;;;;4.00;2.80;;;26.50;58.10;;;;;;20923499;28;20220;-76
2022/06/24 16:05:57;;;;;;;2.07;1.50;;;26.50;58.40;;;;;;21009272;28;20318;-75
2022/06/24 16:15:59;;;;;;;6.27;1.90;;;26.40;58.90;;;;;;21073597;28;20285;-67
2022/06/24 16:36:22;;;;;;;2.10;1.70;;;26.30;59.80;;;;;;21001285;28;20203;-73
2022/06/24 16:46:24;;;;;;;5.30;1.93;;;26.30;60.60;;;;;;21000495;28;20235;-64
2022/06/24 16:56:25;;;;;;;3.00;1.70;;;26.20;61.10;;;;;;21000166;28;20253;-69
2022/06/24 17:06:29;;;;;;;5.70;2.23;;;26.20;61.50;;;;;;20999192;28;20238;-68
2022/06/24 17:16:30;;;;;;;1.57;1.47;;;26.20;62.10;;;;;;20998359;28;20207;-74
2022/06/24 17:26:32;;;;;;;3.97;1.90;;;26.20;62.70;;;;;;20997798;28;20245;-70
2022/06/24 17:36:40;;;;;;;3.93;1.90;;;26.20;63.60;;;;;;20997054;28;20214;-71
2022/06/24 17:46:41;;;;;;;4.70;1.97;;;26.10;63.80;;;;;;20996391;28;20246;-72
2022/06/24 17:56:43;;;;;;;5.00;1.70;;;25.90;64.10;;;;;;20996320;28;20244;-69
2022/06/24 18:06:45;;;;;;;4.87;1.60;;;25.60;64.80;;;;;;20913363;28;20228;-73
2022/06/24 18:16:47;;;;;;;3.53;1.73;;;25.30;67.60;;;;;;20912307;28;20266;-68
2022/06/24 18:26:48;;;;;;;1.93;1.40;;;24.80;70.40;;;;;;20911901;28;20626;-65
2022/06/24 18:36:56;;;;;;;4.03;1.60;;;24.40;72.50;;;;;;20911356;28;20212;-66
2022/06/24 18:46:58;;;;;;;4.40;1.60;;;23.40;77.30;;;;;;20911174;28;20608;-71
2022/06/24 18:57:00;;;;;;;3.67;2.07;;;22.50;83.00;;;;;;20916442;28;20216;-73
2022/06/24 19:07:07;;;;;;;5.30;1.50;;;22.40;85.50;;;;;;21006024;28;20235;-71
2022/06/24 19:17:08;;;;;;;3.67;1.53;;;22.20;86.70;;;;;;21008089;28;20203;-70
2022/06/24 19:27:10;;;;;;;3.20;1.80;;;22.00;87.50;;;;;;21007282;28;20230;-65
2022/06/24 19:37:12;;;;;;;1.53;1.30;;;21.60;88.90;;;;;;21013881;28;20210;-72
2022/06/24 19:47:15;;;;;;;2.63;1.20;;;21.30;90.10;;;;;;21005341;28;20710;-76
2022/06/24 19:57:17;;;;;;;2.23;1.10;;;21.20;90.60;;;;;;21001959;28;20200;-72
2022/06/24 20:07:39;;;;;;;2.30;1.20;;;21.20;90.70;;;;;;20979179;28;20238;-76
2022/06/24 20:17:41;;;;;;;2.10;1.20;;;21.20;91.20;;;;;;21001238;28;20298;-77
2022/06/24 20:27:42;;;;;;;5.07;1.10;;;21.20;91.20;;;;;;21001865;28;20273;-76
2022/06/24 20:37:44;;;;;;;4.00;1.20;;;21.10;91.60;;;;;;21019454;28;20214;-77
2022/06/24 20:47:48;;;;;;;1.17;1.07;;;21.10;91.90;;;;;;21021641;28;20253;-76
2022/06/24 20:57:50;;;;;;;1.93;1.20;;;21.30;91.90;;;;;;21017204;28;20203;-74
2022/06/24 21:07:53;;;;;;;1.23;1.10;;;21.20;91.80;;;;;;21002772;28;20250;-80
2022/06/24 21:17:54;;;;;;;2.03;1.10;;;21.20;92.30;;;;;;20978841;28;20210;-74
2022/06/24 21:27:56;;;;;;;1.47;1.37;;;21.10;92.10;;;;;;20995879;28;20324;-74
2022/06/24 21:37:58;;;;;;;2.10;1.50;;;21.10;92.10;;;;;;20995113;28;20285;-76
2022/06/24 21:48:00;;;;;;;1.50;1.40;;;21.00;92.30;;;;;;20993157;28;20251;-77
2022/06/24 21:58:01;;;;;;;1.40;1.30;;;20.90;92.30;;;;;;20993056;28;20212;-76
2022/06/24 22:08:12;;;;;;;7.37;1.50;;;20.80;92.40;;;;;;20985794;28;20663;-74
2022/06/24 22:18:19;;;;;;;2.23;1.50;;;20.70;92.60;;;;;;20992533;28;20205;-76
2022/06/24 22:28:21;;;;;;;1.50;1.30;;;20.60;92.90;;;;;;20992944;28;20244;-76
2022/06/24 22:38:23;;;;;;;1.40;1.30;;;20.50;93.10;;;;;;21007993;28;20212;-76
2022/06/24 22:48:28;;;;;;;2.27;1.63;;;20.50;93.30;;;;;;21008846;28;20590;-75
2022/06/24 22:58:30;;;;;;;3.00;1.30;;;20.40;93.60;;;;;;21008459;28;20679;-76
2022/06/24 23:08:32;;;;;;;1.70;1.53;;;20.40;93.90;;;;;;21007122;28;20913;-77
2022/06/24 23:18:33;;;;;;;1.67;1.40;;;20.40;93.80;;;;;;21006052;28;20206;-76
2022/06/24 23:28:35;;;;;;;2.90;1.60;;;20.40;94.20;;;;;;21005727;28;20295;-77
2022/06/24 23:38:37;;;;;;;4.33;1.70;;;20.50;94.30;;;;;;21005926;28;20218;-75
2022/06/24 23:58:59;;;;;;;2.30;2.10;;;20.40;94.30;;;;;;21003242;28;20211;-74
